Time;durP1;ratioP1;P1;durP2;ratioP2;P2;SDS_P1;SDS_P2;PMS_P1;PMS_P2;Temp;Humidity;BMP_temperature;BMP_pressure;BME280_temperature;BME280_humidity;BME280_pressure;Samples;Min_cycle;Max_cycle;Signal;HPM_P1;HPM_P2
2024/02/09 00:01:52;;;;;;;2.20;2.10;;;14.00;56.50;;;;;;5051027;28;20493;-77
2024/02/09 00:04:21;;;;;;;2.60;2.40;;;14.00;56.30;;;;;;5053383;28;20500;-77
2024/02/09 00:06:50;;;;;;;2.30;2.20;;;14.00;56.50;;;;;;5048114;28;20470;-77
2024/02/09 00:09:19;;;;;;;2.57;2.37;;;13.90;56.30;;;;;;5053028;28;20483;-78
2024/02/09 00:11:49;;;;;;;2.80;2.60;;;14.00;56.40;;;;;;5052664;28;20470;-77
2024/02/09 00:14:17;;;;;;;2.60;2.40;;;14.00;56.40;;;;;;5053726;28;20439;-77
2024/02/09 00:16:46;;;;;;;2.00;1.83;;;13.90;56.30;;;;;;5053980;28;20550;-78
2024/02/09 00:19:15;;;;;;;2.97;2.40;;;13.90;56.50;;;;;;5049304;28;20463;-78
2024/02/09 00:21:43;;;;;;;4.10;2.53;;;13.90;56.30;;;;;;5052982;28;20467;-78
2024/02/09 00:24:12;;;;;;;2.90;2.20;;;13.90;56.40;;;;;;5053029;28;20453;-78
2024/02/09 00:26:41;;;;;;;2.63;2.43;;;13.90;56.40;;;;;;5052743;28;20450;-77
2024/02/09 00:29:10;;;;;;;2.90;2.43;;;13.90;56.20;;;;;;5046576;28;21075;-78
2024/02/09 00:31:38;;;;;;;2.50;2.30;;;13.90;56.40;;;;;;5050889;28;20459;-78
2024/02/09 00:34:06;;;;;;;2.63;2.03;;;13.90;56.40;;;;;;5054061;28;20447;-77
2024/02/09 00:36:36;;;;;;;2.20;2.00;;;13.90;56.30;;;;;;5053847;28;20453;-77
2024/02/09 00:39:05;;;;;;;2.30;2.20;;;13.90;56.30;;;;;;5050839;28;20483;-77
2024/02/09 00:41:33;;;;;;;2.57;2.37;;;13.90;56.40;;;;;;5050855;28;20450;-77
2024/02/09 00:44:03;;;;;;;3.67;2.20;;;13.90;56.30;;;;;;5047859;28;20446;-77
2024/02/09 00:46:32;;;;;;;2.07;1.97;;;13.80;56.20;;;;;;5047773;28;20886;-77
2024/02/09 00:49:02;;;;;;;2.50;2.30;;;13.80;56.30;;;;;;5053265;28;20470;-76
2024/02/09 00:51:31;;;;;;;2.43;2.23;;;13.80;56.10;;;;;;5052390;28;20449;-78
2024/02/09 00:54:01;;;;;;;1.93;1.83;;;13.80;56.30;;;;;;5052950;28;20435;-77
2024/02/09 00:56:29;;;;;;;2.20;2.10;;;13.80;56.20;;;;;;5053348;28;20449;-77
2024/02/09 00:58:57;;;;;;;2.10;2.00;;;13.80;56.20;;;;;;5045087;28;20493;-77
2024/02/09 01:01:25;;;;;;;2.43;2.13;;;13.80;56.10;;;;;;5053285;28;20485;-77
2024/02/09 01:03:54;;;;;;;2.40;2.20;;;13.80;56.20;;;;;;5053161;28;20453;-77
2024/02/09 01:06:22;;;;;;;2.77;2.50;;;13.80;56.20;;;;;;5052945;28;20442;-77
2024/02/09 01:08:50;;;;;;;2.30;2.10;;;13.80;56.20;;;;;;5052384;28;20470;-77
2024/02/09 01:11:20;;;;;;;2.20;2.00;;;13.80;56.10;;;;;;5053142;28;20446;-77
2024/02/09 02:44:46;;;;;;;2.60;2.40;;;13.60;56.40;;;;;;5053646;28;20450;-77
2024/02/09 02:47:16;;;;;;;2.20;2.00;;;13.60;56.30;;;;;;5055068;28;20442;-78
2024/02/09 03:06:17;;;;;;;5.40;3.87;;;13.50;56.30;;;;;;5048827;28;20442;-78
2024/02/09 03:08:45;;;;;;;6.40;4.43;;;13.50;56.30;;;;;;5054190;28;20453;-79
2024/02/09 03:11:16;;;;;;;6.73;4.50;;;13.50;56.30;;;;;;5054993;28;20470;-79
2024/02/09 03:13:44;;;;;;;8.13;5.63;;;13.50;56.30;;;;;;5044820;28;20446;-79
2024/02/09 03:16:15;;;;;;;7.30;5.30;;;13.60;56.40;;;;;;5052230;28;20451;-79
2024/02/09 03:18:44;;;;;;;8.03;5.83;;;13.60;56.40;;;;;;5054068;28;20516;-79
2024/02/09 03:21:19;;;;;;;8.23;5.70;;;13.50;56.20;;;;;;5046553;28;20549;-78
2024/02/09 03:23:49;;;;;;;9.93;6.03;;;13.60;56.20;;;;;;5054210;28;20442;-79
2024/02/09 03:26:17;;;;;;;10.63;6.90;;;13.50;56.20;;;;;;5053898;28;20477;-78
2024/02/09 03:28:45;;;;;;;10.83;6.87;;;13.50;56.30;;;;;;5054074;28;20497;-78
2024/02/09 03:31:13;;;;;;;11.00;6.50;;;13.50;56.20;;;;;;5045368;28;20443;-79
2024/02/09 03:33:42;;;;;;;11.23;7.37;;;13.50;56.30;;;;;;5053874;28;20443;-79
2024/02/09 03:36:10;;;;;;;10.63;6.80;;;13.60;56.20;;;;;;5053818;28;20434;-79
2024/02/09 03:38:37;;;;;;;12.63;7.20;;;13.50;56.20;;;;;;5046304;28;20490;-79
2024/02/09 03:41:07;;;;;;;11.00;7.53;;;13.50;56.20;;;;;;5053521;28;20470;-78
2024/02/09 03:43:35;;;;;;;8.80;5.73;;;13.50;56.10;;;;;;5051142;28;20494;-78
2024/02/09 03:46:03;;;;;;;11.00;7.20;;;13.50;56.20;;;;;;5051513;28;20972;-79
2024/02/09 03:48:31;;;;;;;9.90;6.50;;;13.50;56.20;;;;;;5052678;28;20462;-78
2024/02/09 03:51:01;;;;;;;10.40;6.67;;;13.50;56.30;;;;;;5052775;28;20565;-79
2024/02/09 03:53:30;;;;;;;9.70;6.70;;;13.50;56.30;;;;;;5052632;28;20439;-78
2024/02/09 03:55:58;;;;;;;10.47;6.17;;;13.50;56.20;;;;;;5052812;28;20478;-78
2024/02/09 03:58:27;;;;;;;9.53;6.37;;;13.50;56.30;;;;;;5042325;28;20557;-78
2024/02/09 04:00:58;;;;;;;10.33;6.40;;;13.50;56.20;;;;;;5053139;28;20443;-78
2024/02/09 04:03:27;;;;;;;10.20;6.40;;;13.50;56.20;;;;;;5044907;28;20512;-77
2024/02/09 04:05:56;;;;;;;8.40;6.00;;;13.50;56.20;;;;;;5053096;28;20500;-78
2024/02/09 04:08:25;;;;;;;10.07;6.80;;;13.50;56.30;;;;;;5053151;28;21003;-77
2024/02/09 04:10:53;;;;;;;8.47;6.13;;;13.50;56.20;;;;;;5045001;28;20467;-78
2024/02/09 04:13:20;;;;;;;8.23;5.90;;;13.50;56.30;;;;;;5053113;28;20442;-78
2024/02/09 04:15:50;;;;;;;9.07;6.00;;;13.50;56.30;;;;;;5049896;28;20454;-78
2024/02/09 04:18:18;;;;;;;9.47;6.07;;;13.50;56.30;;;;;;5048951;28;20496;-78
2024/02/09 04:20:46;;;;;;;10.73;6.07;;;13.50;56.10;;;;;;5045363;28;20450;-78
2024/02/09 04:23:14;;;;;;;7.00;4.97;;;13.50;56.20;;;;;;5049711;28;20485;-78
2024/02/09 04:25:43;;;;;;;6.70;5.17;;;13.50;56.20;;;;;;5053605;28;20438;-79
2024/02/09 04:28:12;;;;;;;7.33;5.20;;;13.50;56.30;;;;;;5053047;28;20469;-79
2024/02/09 04:30:44;;;;;;;6.57;5.40;;;13.50;56.20;;;;;;5053252;28;20562;-79
2024/02/09 04:33:15;;;;;;;7.93;5.27;;;13.50;56.20;;;;;;5054359;28;20530;-78
2024/02/09 04:35:44;;;;;;;6.80;5.17;;;13.40;56.20;;;;;;5045806;28;20954;-79
2024/02/09 04:38:12;;;;;;;5.40;4.40;;;13.40;56.20;;;;;;5045735;28;20525;-79
2024/02/09 04:40:40;;;;;;;6.83;5.17;;;13.40;56.20;;;;;;5051741;28;20498;-78
2024/02/09 04:43:08;;;;;;;5.50;4.50;;;13.40;56.30;;;;;;5052042;28;20462;-79
2024/02/09 04:45:36;;;;;;;5.37;4.47;;;13.40;56.20;;;;;;5054088;28;20447;-78
2024/02/09 04:48:05;;;;;;;5.40;4.23;;;13.50;56.40;;;;;;5054784;28;20520;-78
2024/02/09 04:50:34;;;;;;;5.80;3.70;;;13.40;56.20;;;;;;5045696;28;20557;-78
2024/02/09 04:53:02;;;;;;;6.03;4.47;;;13.40;56.10;;;;;;5033168;28;20499;-78
2024/02/09 04:55:34;;;;;;;7.57;5.00;;;13.40;56.30;;;;;;5045110;28;20503;-79
2024/02/09 04:58:06;;;;;;;4.90;4.00;;;13.40;56.20;;;;;;5043887;28;20477;-77
2024/02/09 05:00:35;;;;;;;4.93;4.03;;;13.40;56.20;;;;;;5052588;28;20442;-77
2024/02/09 05:03:04;;;;;;;19.70;4.77;;;13.40;56.20;;;;;;5051714;28;20469;-77
2024/02/09 05:05:33;;;;;;;6.13;4.10;;;13.50;56.40;;;;;;5052297;28;20447;-77
2024/02/09 05:08:05;;;;;;;4.10;3.70;;;13.50;56.30;;;;;;5050420;28;20477;-77
2024/02/09 05:10:34;;;;;;;5.60;4.10;;;13.50;56.40;;;;;;5046852;28;20534;-78
2024/02/09 05:13:02;;;;;;;4.53;4.00;;;13.50;56.40;;;;;;5043619;28;20458;-78
2024/02/09 05:15:33;;;;;;;3.80;3.40;;;13.40;56.30;;;;;;5047698;28;20438;-77
2024/02/09 05:18:02;;;;;;;4.33;3.90;;;13.40;56.40;;;;;;5051871;28;20446;-78
2024/02/09 05:20:30;;;;;;;5.50;3.80;;;13.40;56.40;;;;;;5050074;28;20438;-78
2024/02/09 05:22:58;;;;;;;3.63;3.30;;;13.40;56.40;;;;;;5048658;28;20534;-77
2024/02/09 05:25:27;;;;;;;3.40;3.10;;;13.40;56.40;;;;;;5051958;28;20539;-78
2024/02/09 05:27:56;;;;;;;4.97;3.63;;;13.40;56.40;;;;;;5052303;28;20527;-78
2024/02/09 05:30:29;;;;;;;3.47;3.17;;;13.40;56.30;;;;;;5046877;28;20473;-78
2024/02/09 05:32:57;;;;;;;3.50;3.20;;;13.40;56.20;;;;;;5052330;28;20438;-77
2024/02/09 05:35:25;;;;;;;3.30;3.00;;;13.40;56.40;;;;;;5047310;28;20530;-78
2024/02/09 05:37:53;;;;;;;3.90;3.50;;;13.40;56.40;;;;;;5051907;28;20494;-78
2024/02/09 05:40:21;;;;;;;3.80;3.40;;;13.40;56.40;;;;;;5064198;22;20565;-75
2024/02/09 05:42:50;;;;;;;3.57;3.27;;;13.40;56.40;;;;;;5037574;28;20443;-76
2024/02/09 05:45:18;;;;;;;3.50;3.07;;;13.40;56.40;;;;;;5035070;28;20459;-77
2024/02/09 05:47:46;;;;;;;3.53;3.20;;;13.40;56.50;;;;;;5032675;28;20494;-75
2024/02/09 05:50:14;;;;;;;3.50;2.97;;;13.40;56.60;;;;;;5031581;28;20452;-75
2024/02/09 05:52:53;;;;;;;2.83;2.50;;;13.40;56.50;;;;;;5031437;28;20444;-75
2024/02/09 05:55:23;;;;;;;2.93;2.73;;;13.40;56.50;;;;;;5031510;28;20515;-75
2024/02/09 05:57:55;;;;;;;3.20;2.70;;;13.40;56.50;;;;;;5025880;28;20447;-76
2024/02/09 06:00:24;;;;;;;3.50;3.13;;;13.40;56.50;;;;;;5031572;28;20451;-76
2024/02/09 06:02:53;;;;;;;3.23;2.93;;;13.40;56.50;;;;;;5028057;28;20435;-75
2024/02/09 06:05:21;;;;;;;3.33;2.23;;;13.40;56.40;;;;;;5026305;28;20489;-76
2024/02/09 06:07:49;;;;;;;4.60;2.93;;;13.40;56.40;;;;;;5030280;28;20535;-76
2024/02/09 06:10:19;;;;;;;2.60;2.40;;;13.40;56.60;;;;;;5029663;28;20487;-76
2024/02/09 06:12:47;;;;;;;3.20;2.93;;;13.40;56.60;;;;;;5025742;28;20474;-76
2024/02/09 06:15:17;;;;;;;3.20;3.00;;;13.40;56.60;;;;;;5026773;28;20435;-76
2024/02/09 06:17:45;;;;;;;2.50;2.30;;;13.40;56.60;;;;;;5026456;28;20448;-77
2024/02/09 06:20:22;;;;;;;2.43;2.23;;;13.40;56.60;;;;;;5034046;28;20459;-75
2024/02/09 06:22:51;;;;;;;2.93;2.53;;;13.40;56.60;;;;;;5035529;28;20478;-76
2024/02/09 06:25:22;;;;;;;4.03;2.50;;;13.40;56.50;;;;;;5028130;28;20451;-76
2024/02/09 06:27:50;;;;;;;2.50;2.30;;;13.40;56.60;;;;;;5030750;28;20443;-75
2024/02/09 06:30:19;;;;;;;3.20;2.90;;;13.40;56.60;;;;;;5031792;28;20547;-75
2024/02/09 06:32:47;;;;;;;2.60;2.40;;;13.40;56.50;;;;;;5028463;28;20484;-76
2024/02/09 06:35:15;;;;;;;2.27;2.17;;;13.40;56.60;;;;;;5024714;28;20767;-75
2024/02/09 06:37:43;;;;;;;2.17;1.90;;;13.40;56.60;;;;;;5034769;28;20517;-76
2024/02/09 06:40:13;;;;;;;3.87;2.90;;;13.40;56.70;;;;;;5033495;28;20489;-76
2024/02/09 06:42:43;;;;;;;2.83;2.40;;;13.40;56.60;;;;;;5034231;28;20438;-76
2024/02/09 06:45:14;;;;;;;2.13;2.03;;;13.40;56.60;;;;;;5034450;28;20447;-76
2024/02/09 06:47:43;;;;;;;2.37;2.17;;;13.40;56.60;;;;;;5034744;28;20506;-76
2024/02/09 06:50:12;;;;;;;2.50;2.30;;;13.40;56.70;;;;;;5031388;28;20466;-76
2024/02/09 06:52:41;;;;;;;2.17;1.97;;;13.40;56.70;;;;;;5029067;28;20482;-77
2024/02/09 06:55:11;;;;;;;2.13;2.03;;;13.40;56.70;;;;;;5033682;28;20455;-76
2024/02/09 06:57:46;;;;;;;2.40;2.20;;;13.40;56.80;;;;;;5034497;28;20447;-77
2024/02/09 07:00:15;;;;;;;3.40;2.33;;;13.50;56.80;;;;;;5034352;28;20471;-76
2024/02/09 07:02:46;;;;;;;1.90;1.80;;;13.40;56.70;;;;;;5034064;28;20454;-77
2024/02/09 07:05:15;;;;;;;2.03;1.93;;;13.40;56.70;;;;;;5034677;28;20473;-77
2024/02/09 07:07:45;;;;;;;2.13;2.00;;;13.40;56.80;;;;;;5034935;28;20447;-77
2024/02/09 07:10:13;;;;;;;2.43;2.20;;;13.50;56.80;;;;;;5030256;28;20463;-77
2024/02/09 07:12:41;;;;;;;2.70;2.07;;;13.40;57.00;;;;;;5027442;28;20546;-77
2024/02/09 07:15:12;;;;;;;2.10;2.00;;;13.50;56.90;;;;;;5033370;28;20490;-76
2024/02/09 07:17:41;;;;;;;2.10;2.00;;;13.50;56.90;;;;;;5026835;28;20540;-77
2024/02/09 07:20:16;;;;;;;2.07;1.97;;;13.50;56.90;;;;;;5033359;28;20517;-77
2024/02/09 07:22:46;;;;;;;1.70;1.60;;;13.50;56.90;;;;;;5047480;28;20518;-78
2024/02/09 07:25:14;;;;;;;1.87;1.77;;;13.50;56.90;;;;;;5048465;28;20479;-77
2024/02/09 07:27:42;;;;;;;1.97;1.77;;;13.50;56.90;;;;;;5053583;28;20435;-76
2024/02/09 07:30:12;;;;;;;2.20;2.07;;;13.50;56.80;;;;;;5039153;28;20470;-78
2024/02/09 07:32:41;;;;;;;1.90;1.80;;;13.50;56.80;;;;;;5038145;28;20470;-77
2024/02/09 07:35:09;;;;;;;1.80;1.70;;;13.50;56.90;;;;;;5036934;28;20443;-77
2024/02/09 07:37:39;;;;;;;3.00;1.90;;;13.50;56.90;;;;;;5032095;28;20477;-77
2024/02/09 07:40:09;;;;;;;2.00;1.80;;;13.50;57.00;;;;;;5033629;28;20475;-76
2024/02/09 07:42:37;;;;;;;2.10;2.00;;;13.50;56.90;;;;;;5030324;28;20448;-77
2024/02/09 07:45:16;;;;;;;2.20;2.00;;;13.50;56.90;;;;;;5033041;28;20535;-77
2024/02/09 07:47:45;;;;;;;2.10;2.00;;;13.50;57.00;;;;;;5033060;28;20466;-77
2024/02/09 07:50:14;;;;;;;1.70;1.60;;;13.50;57.00;;;;;;5035323;28;20470;-77
2024/02/09 07:52:43;;;;;;;1.97;1.80;;;13.50;57.00;;;;;;5027461;28;20558;-77
2024/02/09 07:55:13;;;;;;;1.90;1.80;;;13.50;57.00;;;;;;5033840;28;20448;-77
2024/02/09 07:57:43;;;;;;;1.63;1.53;;;13.60;57.20;;;;;;5033416;28;20447;-77
2024/02/09 08:00:17;;;;;;;1.70;1.60;;;13.50;57.10;;;;;;5030517;28;20464;-77
2024/02/09 08:02:45;;;;;;;3.63;2.00;;;13.60;57.00;;;;;;5023816;28;20436;-77
2024/02/09 08:05:17;;;;;;;1.70;1.60;;;13.60;57.10;;;;;;5025463;28;20493;-77
2024/02/09 08:07:50;;;;;;;1.80;1.70;;;13.60;57.00;;;;;;5023435;28;20474;-78
2024/02/09 08:10:18;;;;;;;1.90;1.80;;;13.60;57.20;;;;;;5024579;28;20467;-77
2024/02/09 08:12:47;;;;;;;1.57;1.47;;;13.60;57.30;;;;;;5027502;28;20565;-77
2024/02/09 08:15:15;;;;;;;1.83;1.73;;;13.60;57.20;;;;;;5024120;28;20528;-77
2024/02/09 08:17:48;;;;;;;1.50;1.40;;;13.60;57.10;;;;;;5023426;28;20872;-77
2024/02/09 08:20:20;;;;;;;2.30;2.20;;;13.60;57.20;;;;;;5025714;28;20467;-77
2024/02/09 08:22:50;;;;;;;2.50;1.70;;;13.60;57.20;;;;;;5023739;28;20483;-77
2024/02/09 08:25:18;;;;;;;1.73;1.63;;;13.60;57.20;;;;;;5026996;28;20921;-77
2024/02/09 08:27:47;;;;;;;1.70;1.60;;;13.60;57.20;;;;;;5028739;28;20451;-78
2024/02/09 08:30:15;;;;;;;1.77;1.67;;;13.60;57.20;;;;;;5024067;28;20460;-78
2024/02/09 08:32:43;;;;;;;1.90;1.80;;;13.60;57.20;;;;;;5023477;28;20475;-78
2024/02/09 08:35:12;;;;;;;1.50;1.40;;;13.70;57.30;;;;;;5024372;28;20527;-77
2024/02/09 08:37:40;;;;;;;2.17;1.90;;;13.60;57.10;;;;;;5027274;28;20443;-78
2024/02/09 08:40:11;;;;;;;1.70;1.60;;;13.70;57.20;;;;;;5025171;28;20572;-77
2024/02/09 08:42:39;;;;;;;1.50;1.40;;;13.70;57.40;;;;;;5023768;28;20538;-78
2024/02/09 08:45:08;;;;;;;1.87;1.77;;;13.70;57.40;;;;;;5025781;28;20539;-78
2024/02/09 08:47:36;;;;;;;2.13;1.60;;;13.70;57.40;;;;;;5025024;28;20499;-78
2024/02/09 08:50:06;;;;;;;2.03;1.90;;;13.70;57.40;;;;;;5018675;28;20468;-77
2024/02/09 08:52:34;;;;;;;1.90;1.80;;;13.70;57.40;;;;;;5031208;28;20479;-75
2024/02/09 08:55:02;;;;;;;2.00;1.90;;;13.70;57.50;;;;;;5033177;28;20466;-77
2024/02/09 08:57:32;;;;;;;1.93;1.83;;;13.70;57.50;;;;;;5035057;28;20533;-77
2024/02/09 09:00:00;;;;;;;1.60;1.50;;;13.70;57.40;;;;;;5033064;28;20527;-76
2024/02/09 09:02:29;;;;;;;2.10;2.00;;;13.70;57.60;;;;;;5032080;28;20458;-78
2024/02/09 09:04:58;;;;;;;2.03;1.40;;;13.80;57.60;;;;;;5032902;28;20466;-78
2024/02/09 09:07:26;;;;;;;1.97;1.60;;;13.80;57.60;;;;;;5030427;28;20439;-77
2024/02/09 09:09:55;;;;;;;1.80;1.70;;;13.80;57.60;;;;;;5024708;28;20538;-77
2024/02/09 09:12:26;;;;;;;2.13;1.93;;;13.80;57.70;;;;;;5030826;28;20486;-75
2024/02/09 09:14:56;;;;;;;1.70;1.60;;;13.80;57.70;;;;;;5032295;28;20449;-79
2024/02/09 09:17:25;;;;;;;2.33;1.70;;;13.80;57.80;;;;;;5033861;28;20451;-77
2024/02/09 09:19:58;;;;;;;1.30;1.30;;;13.80;57.70;;;;;;5032101;28;20463;-77
2024/02/09 09:22:26;;;;;;;1.87;1.70;;;13.80;57.80;;;;;;5031907;28;20447;-78
2024/02/09 09:24:55;;;;;;;2.30;2.03;;;13.80;57.70;;;;;;5031887;28;20455;-78
2024/02/09 09:27:23;;;;;;;1.60;1.50;;;13.80;57.70;;;;;;5031738;28;20454;-76
2024/02/09 09:29:52;;;;;;;2.20;1.60;;;13.80;57.60;;;;;;5028905;28;20464;-75
2024/02/09 09:32:22;;;;;;;1.70;1.60;;;13.80;57.70;;;;;;5031509;28;20514;-76
2024/02/09 09:34:50;;;;;;;1.97;1.60;;;13.80;57.80;;;;;;5033789;28;20443;-78
2024/02/09 09:37:18;;;;;;;2.57;1.50;;;13.80;57.80;;;;;;5029802;28;20470;-77
2024/02/09 09:39:47;;;;;;;4.63;1.50;;;13.90;58.00;;;;;;5031339;28;20498;-77
2024/02/09 09:42:15;;;;;;;1.60;1.50;;;13.80;57.90;;;;;;5031836;28;20475;-77
2024/02/09 09:44:47;;;;;;;6.13;2.27;;;13.90;58.20;;;;;;5030469;28;20973;-78
2024/02/09 09:47:15;;;;;;;1.67;1.57;;;13.80;58.10;;;;;;5025610;28;20474;-77
2024/02/09 09:49:45;;;;;;;1.60;1.50;;;13.90;58.10;;;;;;5032183;28;20462;-77
2024/02/09 09:52:19;;;;;;;2.10;1.50;;;13.90;58.20;;;;;;5031710;28;20489;-77
2024/02/09 09:54:48;;;;;;;2.40;1.60;;;13.90;58.30;;;;;;5031320;28;20440;-77
2024/02/09 09:57:16;;;;;;;1.70;1.60;;;13.90;58.10;;;;;;5029516;28;20446;-78
2024/02/09 09:59:44;;;;;;;4.27;1.60;;;13.90;58.40;;;;;;5031590;28;20505;-77
2024/02/09 10:02:12;;;;;;;4.30;1.27;;;13.90;58.30;;;;;;5032236;28;20505;-76
2024/02/09 10:04:41;;;;;;;2.00;1.67;;;13.90;58.40;;;;;;5031054;28;20438;-76
2024/02/09 10:07:11;;;;;;;3.17;1.40;;;14.00;58.60;;;;;;5031148;28;20447;-76
2024/02/09 10:09:40;;;;;;;1.67;1.30;;;13.90;58.40;;;;;;5031706;28;20521;-76
2024/02/09 10:12:10;;;;;;;2.30;1.60;;;13.90;58.30;;;;;;5032540;28;20443;-76
2024/02/09 10:14:39;;;;;;;1.67;1.33;;;13.90;58.50;;;;;;5031595;28;20475;-78
2024/02/09 10:17:10;;;;;;;1.90;1.80;;;14.00;58.60;;;;;;5032247;28;20515;-80
2024/02/09 10:19:39;;;;;;;2.33;1.73;;;14.00;58.70;;;;;;5024496;28;20533;-77
2024/02/09 10:22:07;;;;;;;1.83;1.57;;;14.00;58.80;;;;;;5032654;28;20452;-76
2024/02/09 10:24:48;;;;;;;1.90;1.47;;;14.00;58.80;;;;;;5026466;28;20456;-79
2024/02/09 10:27:17;;;;;;;1.70;1.60;;;14.00;58.80;;;;;;5032359;28;20447;-79
2024/02/09 10:29:46;;;;;;;1.50;1.40;;;14.00;59.40;;;;;;5033892;28;20467;-80
2024/02/09 10:32:14;;;;;;;2.50;1.90;;;14.00;58.80;;;;;;5033460;28;20867;-80
2024/02/09 10:34:43;;;;;;;2.03;1.73;;;14.00;58.90;;;;;;5033340;28;20507;-77
2024/02/09 10:37:11;;;;;;;6.13;1.43;;;14.00;59.10;;;;;;5033458;28;20447;-79
2024/02/09 10:39:56;;;;;;;7.23;1.67;;;14.10;59.10;;;;;;5023572;28;20482;-77
2024/02/09 10:42:24;;;;;;;2.00;1.70;;;14.10;60.30;;;;;;5030620;28;20435;-77
2024/02/09 10:44:54;;;;;;;3.67;1.93;;;14.20;60.80;;;;;;5033242;28;20463;-77
2024/02/09 10:47:32;;;;;;;3.17;1.43;;;14.30;60.90;;;;;;5052835;28;20426;-77
2024/02/09 10:50:00;;;;;;;1.90;1.70;;;14.30;60.90;;;;;;5047448;28;20558;-77
2024/02/09 10:52:29;;;;;;;5.10;1.67;;;14.30;60.70;;;;;;5054141;28;20436;-77
2024/02/09 10:54:58;;;;;;;1.97;1.80;;;14.30;60.50;;;;;;5030153;28;21004;-77
2024/02/09 10:57:26;;;;;;;2.70;2.10;;;14.30;60.40;;;;;;5040057;28;20521;-77
2024/02/09 10:59:54;;;;;;;2.43;1.80;;;14.30;60.20;;;;;;5033629;28;20509;-77
2024/02/09 11:02:27;;;;;;;5.50;1.77;;;14.30;61.00;;;;;;5031591;28;21035;-79
2024/02/09 11:04:55;;;;;;;4.63;1.80;;;14.30;60.20;;;;;;5030151;28;20530;-77
2024/02/09 11:07:23;;;;;;;3.93;1.63;;;14.30;60.10;;;;;;5027619;28;20511;-76
2024/02/09 11:09:51;;;;;;;8.17;1.83;;;14.30;60.10;;;;;;5034416;28;20463;-76
2024/02/09 11:12:20;;;;;;;2.03;1.83;;;14.40;60.20;;;;;;5035593;28;20435;-77
2024/02/09 11:14:48;;;;;;;3.03;2.00;;;14.40;60.20;;;;;;5035530;28;21005;-78
2024/02/09 11:17:18;;;;;;;2.57;2.30;;;14.40;60.20;;;;;;5034320;28;20478;-79
2024/02/09 11:19:48;;;;;;;1.90;1.80;;;14.40;60.30;;;;;;5037284;28;20498;-78
2024/02/09 11:22:17;;;;;;;2.20;1.73;;;14.40;60.30;;;;;;5035798;28;20509;-76
2024/02/09 11:24:46;;;;;;;5.37;1.50;;;14.40;60.50;;;;;;5028182;28;20813;-74
2024/02/09 11:27:14;;;;;;;1.50;1.37;;;14.40;60.50;;;;;;5029698;28;20522;-76
2024/02/09 11:29:44;;;;;;;2.03;1.53;;;14.40;60.60;;;;;;5024062;28;20542;-76
2024/02/09 11:32:14;;;;;;;2.83;1.67;;;14.40;60.60;;;;;;5034478;28;20431;-76
2024/02/09 11:34:47;;;;;;;1.87;1.77;;;14.40;60.70;;;;;;5026517;28;20583;-77
2024/02/09 11:37:17;;;;;;;3.37;1.53;;;14.40;60.70;;;;;;5029839;28;20444;-78
2024/02/09 11:40:37;;;;;;;1.93;1.70;;;14.40;60.80;;;;;;5065932;22;20478;-77
2024/02/09 11:43:09;;;;;;;3.50;1.70;;;14.40;61.00;;;;;;5042336;28;20443;-77
2024/02/09 11:45:39;;;;;;;2.07;1.87;;;14.50;61.30;;;;;;5054328;28;20438;-75
2024/02/09 11:48:36;;;;;;;2.87;1.70;;;14.50;61.60;;;;;;5049349;28;20485;-76
2024/02/09 11:51:05;;;;;;;2.00;1.80;;;14.60;61.90;;;;;;5027841;28;20444;-76
2024/02/09 11:53:34;;;;;;;1.80;1.63;;;14.60;61.70;;;;;;5033281;28;20444;-77
2024/02/09 11:56:02;;;;;;;1.87;1.77;;;14.70;61.60;;;;;;5021974;28;20444;-77
2024/02/09 11:58:30;;;;;;;1.93;1.83;;;14.70;61.50;;;;;;5026474;28;20433;-78
2024/02/09 12:01:02;;;;;;;1.73;1.63;;;14.70;61.60;;;;;;5033245;28;20443;-78
2024/02/09 12:03:36;;;;;;;1.77;1.53;;;14.70;61.70;;;;;;5030385;28;20447;-78
2024/02/09 12:06:06;;;;;;;1.63;1.53;;;14.70;61.60;;;;;;5030721;28;20449;-78
2024/02/09 12:08:37;;;;;;;2.57;2.00;;;14.80;61.80;;;;;;5024936;28;20447;-78
2024/02/09 12:11:20;;;;;;;1.77;1.67;;;14.80;61.90;;;;;;5030606;28;20444;-78
2024/02/09 12:14:16;;;;;;;1.80;1.70;;;14.80;62.00;;;;;;5031691;28;20475;-78
2024/02/09 12:17:49;;;;;;;1.77;1.67;;;14.80;62.30;;;;;;5011904;28;20985;-77
2024/02/09 12:20:36;;;;;;;4.37;2.20;;;14.90;62.30;;;;;;5020756;28;20467;-77
2024/02/09 12:23:14;;;;;;;5.33;2.70;;;14.90;62.30;;;;;;5026205;28;20482;-78
2024/02/09 12:26:10;;;;;;;2.63;2.10;;;14.90;62.40;;;;;;5032951;28;20438;-77
2024/02/09 12:28:54;;;;;;;2.60;2.40;;;14.90;62.50;;;;;;5022849;28;20555;-75
2024/02/09 12:31:31;;;;;;;4.90;2.70;;;14.90;62.60;;;;;;5026210;28;20457;-76
2024/02/09 12:34:10;;;;;;;4.47;2.73;;;14.90;62.90;;;;;;5032166;28;20499;-77
2024/02/09 12:37:15;;;;;;;4.17;3.10;;;15.00;62.90;;;;;;5031558;28;20542;-76
2024/02/09 12:51:00;;;;;;;4.10;3.47;;;15.10;63.40;;;;;;4951307;28;20471;-76
2024/02/09 12:53:38;;;;;;;8.30;3.63;;;15.10;63.60;;;;;;5026608;28;20450;-77
2024/02/09 12:56:12;;;;;;;4.83;3.80;;;15.10;63.80;;;;;;5029882;28;20490;-76
2024/02/09 12:58:52;;;;;;;4.10;3.70;;;15.20;63.90;;;;;;5032732;28;20486;-77
2024/02/09 13:01:21;;;;;;;4.30;3.90;;;15.10;63.90;;;;;;5032423;28;20485;-80
2024/02/09 13:03:50;;;;;;;7.90;5.10;;;15.20;64.40;;;;;;5033497;28;20498;-80
2024/02/09 13:48:08;;;;;;;16.10;10.93;;;15.20;65.40;;;;;;5056362;28;20466;-81
2024/02/09 13:50:42;;;;;;;13.63;10.10;;;15.30;65.80;;;;;;5058603;28;20446;-80
2024/02/09 13:58:06;;;;;;;15.73;11.10;;;15.40;66.00;;;;;;4928075;28;20460;-79
2024/02/09 14:01:13;;;;;;;17.10;11.57;;;15.50;66.20;;;;;;4952437;28;20446;-79
2024/02/09 14:03:42;;;;;;;18.23;12.57;;;15.60;66.30;;;;;;4997770;28;20449;-77
2024/02/09 14:06:13;;;;;;;20.17;13.50;;;15.70;66.90;;;;;;5032130;28;20438;-77
2024/02/09 14:08:45;;;;;;;19.43;13.77;;;15.80;65.90;;;;;;5045101;28;20471;-77
2024/02/09 14:11:15;;;;;;;21.67;15.00;;;15.80;65.70;;;;;;5053850;28;20442;-77
2024/02/09 14:13:50;;;;;;;25.47;14.90;;;15.80;65.80;;;;;;5071604;28;20442;-77
2024/02/09 14:16:20;;;;;;;26.27;15.63;;;15.80;65.80;;;;;;5071733;28;20458;-78
2024/02/09 14:18:50;;;;;;;22.30;14.93;;;15.80;66.00;;;;;;5073662;28;20489;-76
2024/02/09 14:21:18;;;;;;;24.50;15.23;;;15.80;66.00;;;;;;5060337;28;20477;-76
2024/02/09 14:23:51;;;;;;;21.90;15.40;;;15.90;66.10;;;;;;5042245;28;20509;-77
2024/02/09 14:26:19;;;;;;;24.80;14.87;;;15.90;66.20;;;;;;5045078;28;20443;-78
2024/02/09 14:28:49;;;;;;;22.83;14.70;;;15.90;66.30;;;;;;5061399;28;20453;-79
2024/02/09 14:31:17;;;;;;;20.73;14.50;;;15.90;66.30;;;;;;5055113;28;20488;-80
2024/02/09 14:33:45;;;;;;;18.57;13.33;;;15.90;66.50;;;;;;5050605;28;20443;-79
2024/02/09 14:36:18;;;;;;;20.10;13.23;;;15.90;66.50;;;;;;5052901;28;20480;-79
2024/02/09 14:38:46;;;;;;;18.37;12.60;;;15.90;66.50;;;;;;5055806;28;20462;-80
2024/02/09 14:41:15;;;;;;;17.00;12.20;;;15.90;67.10;;;;;;5054595;28;20450;-80
2024/02/09 14:43:44;;;;;;;19.20;13.00;;;16.00;67.30;;;;;;5054887;28;20453;-80
2024/02/09 14:46:16;;;;;;;15.50;11.80;;;16.00;67.30;;;;;;5056943;28;20492;-79
2024/02/09 14:48:49;;;;;;;17.57;12.30;;;16.00;67.40;;;;;;5052238;28;20462;-80
2024/02/09 14:51:42;;;;;;;14.80;10.17;;;16.00;67.90;;;;;;5057263;28;20473;-80
2024/02/09 14:54:42;;;;;;;15.50;9.47;;;16.00;69.30;;;;;;5053786;28;20519;-80
2024/02/09 14:57:10;;;;;;;13.17;9.70;;;16.00;69.60;;;;;;5021736;28;20507;-80
2024/02/09 14:59:51;;;;;;;16.30;9.13;;;16.00;70.80;;;;;;5052965;28;20464;-77
2024/02/09 15:02:19;;;;;;;16.90;8.60;;;16.00;71.50;;;;;;5053879;28;20446;-77
2024/02/09 15:04:50;;;;;;;16.30;9.10;;;16.00;71.90;;;;;;5054654;28;20439;-77
2024/02/09 15:07:25;;;;;;;12.57;8.07;;;16.00;72.40;;;;;;5050925;28;20450;-77
2024/02/09 15:09:54;;;;;;;17.67;8.60;;;16.00;72.40;;;;;;5051810;28;20520;-78
2024/02/09 15:12:22;;;;;;;12.80;7.70;;;16.00;73.00;;;;;;5050969;28;20500;-78
2024/02/09 15:14:50;;;;;;;13.63;7.83;;;16.00;73.40;;;;;;5048549;28;20480;-78
2024/02/09 15:17:20;;;;;;;12.97;7.90;;;16.00;74.10;;;;;;5052271;28;20527;-78
2024/02/09 15:19:49;;;;;;;10.70;8.17;;;16.00;74.90;;;;;;5050001;28;20467;-79
2024/02/09 15:22:17;;;;;;;10.80;7.47;;;16.00;74.90;;;;;;5056945;28;20478;-79
2024/02/09 15:24:47;;;;;;;10.33;8.03;;;16.10;75.80;;;;;;5052825;28;20439;-80
2024/02/09 15:27:18;;;;;;;16.53;7.50;;;16.20;75.00;;;;;;5055160;28;20457;-80
2024/02/09 15:29:47;;;;;;;9.87;7.23;;;16.20;75.30;;;;;;5053980;28;20466;-79
2024/02/09 15:32:30;;;;;;;16.97;7.20;;;16.20;75.80;;;;;;5055128;28;20447;-80
2024/02/09 15:42:58;;;;;;;15.17;7.50;;;16.20;76.30;;;;;;5046084;28;20461;-79
2024/02/09 15:52:05;;;;;;;14.47;7.73;;;16.20;77.20;;;;;;4974788;28;20481;-81
2024/02/09 15:54:34;;;;;;;12.20;7.70;;;16.20;77.70;;;;;;4973127;28;20517;-81
2024/02/09 15:57:05;;;;;;;10.53;7.17;;;16.20;78.10;;;;;;4977205;28;20501;-79
2024/02/09 15:59:40;;;;;;;10.40;7.87;;;16.20;78.50;;;;;;4980512;28;20500;-80
2024/02/09 16:02:19;;;;;;;13.67;7.73;;;16.20;78.90;;;;;;4987518;28;20445;-81